sensor_id;sensor_type;location;lat;lon;timestamp;pressure;altitude;pressure_sealevel;temperature;humidity
77366;BME280;66430;50.182;11.704;2024-03-29T00:01:55;93218.29;;;8.11;34.30
77366;BME280;66430;50.182;11.704;2024-03-29T00:04:20;93219.27;;;7.87;34.10
77366;BME280;66430;50.182;11.704;2024-03-29T00:06:46;93217.02;;;7.89;34.22
77366;BME280;66430;50.182;11.704;2024-03-29T00:09:11;93215.44;;;7.89;34.06
77366;BME280;66430;50.182;11.704;2024-03-29T00:11:43;93216.09;;;7.96;33.85
77366;BME280;66430;50.182;11.704;2024-03-29T00:14:02;93216.52;;;8.47;33.77
77366;BME280;66430;50.182;11.704;2024-03-29T00:16:28;93213.62;;;8.25;33.80
77366;BME280;66430;50.182;11.704;2024-03-29T00:18:54;93211.46;;;7.98;33.64
77366;BME280;66430;50.182;11.704;2024-03-29T00:21:19;93204.39;;;8.29;33.49
77366;BME280;66430;50.182;11.704;2024-03-29T00:23:45;93203.83;;;7.88;33.58
77366;BME280;66430;50.182;11.704;2024-03-29T00:26:10;93198.38;;;8.06;33.24
77366;BME280;66430;50.182;11.704;2024-03-29T00:28:36;93192.76;;;7.88;33.36
77366;BME280;66430;50.182;11.704;2024-03-29T00:31:02;93196.68;;;8.22;33.25
77366;BME280;66430;50.182;11.704;2024-03-29T00:33:28;93193.53;;;8.05;33.16
77366;BME280;66430;50.182;11.704;2024-03-29T00:35:52;93197.17;;;8.22;33.18
77366;BME280;66430;50.182;11.704;2024-03-29T00:38:18;93196.09;;;8.07;33.11
77366;BME280;66430;50.182;11.704;2024-03-29T00:40:44;93193.16;;;7.79;33.21
77366;BME280;66430;50.182;11.704;2024-03-29T00:43:09;93188.45;;;7.68;33.23
77366;BME280;66430;50.182;11.704;2024-03-29T00:45:35;93181.70;;;7.77;33.30
77366;BME280;66430;50.182;11.704;2024-03-29T00:48:01;93186.38;;;7.64;33.78
77366;BME280;66430;50.182;11.704;2024-03-29T00:50:26;93185.92;;;7.56;33.69
77366;BME280;66430;50.182;11.704;2024-03-29T00:52:52;93179.91;;;7.68;33.30
77366;BME280;66430;50.182;11.704;2024-03-29T00:55:17;93178.18;;;7.51;33.09
77366;BME280;66430;50.182;11.704;2024-03-29T00:57:43;93174.85;;;7.72;32.90
77366;BME280;66430;50.182;11.704;2024-03-29T01:00:09;93171.78;;;7.66;32.81
77366;BME280;66430;50.182;11.704;2024-03-29T01:02:34;93171.70;;;8.04;32.75
77366;BME280;66430;50.182;11.704;2024-03-29T01:05:00;93166.99;;;8.01;32.50
77366;BME280;66430;50.182;11.704;2024-03-29T01:07:25;93166.02;;;8.34;32.44
77366;BME280;66430;50.182;11.704;2024-03-29T01:09:51;93161.61;;;7.64;32.51
77366;BME280;66430;50.182;11.704;2024-03-29T01:12:17;93158.20;;;7.99;32.42
77366;BME280;66430;50.182;11.704;2024-03-29T01:14:42;93158.96;;;8.09;32.46
77366;BME280;66430;50.182;11.704;2024-03-29T01:17:09;93157.78;;;7.82;32.51
77366;BME280;66430;50.182;11.704;2024-03-29T01:19:33;93155.42;;;8.03;32.49
77366;BME280;66430;50.182;11.704;2024-03-29T01:21:59;93155.49;;;7.82;32.63
77366;BME280;66430;50.182;11.704;2024-03-29T01:24:25;93153.52;;;8.11;32.53
77366;BME280;66430;50.182;11.704;2024-03-29T01:26:50;93157.06;;;8.11;32.57
77366;BME280;66430;50.182;11.704;2024-03-29T01:29:15;93158.42;;;8.05;32.65
77366;BME280;66430;50.182;11.704;2024-03-29T01:31:41;93161.56;;;7.77;32.70
77366;BME280;66430;50.182;11.704;2024-03-29T01:34:06;93152.44;;;7.99;32.64
77366;BME280;66430;50.182;11.704;2024-03-29T01:36:32;93149.70;;;7.48;32.70
77366;BME280;66430;50.182;11.704;2024-03-29T01:38:58;93150.51;;;7.95;32.62
77366;BME280;66430;50.182;11.704;2024-03-29T01:41:23;93154.33;;;7.72;32.53
77366;BME280;66430;50.182;11.704;2024-03-29T01:43:49;93156.23;;;7.46;32.52
77366;BME280;66430;50.182;11.704;2024-03-29T01:46:14;93156.66;;;7.59;32.57
77366;BME280;66430;50.182;11.704;2024-03-29T01:48:40;93163.43;;;8.05;32.57
77366;BME280;66430;50.182;11.704;2024-03-29T01:51:05;93161.36;;;7.74;32.74
77366;BME280;66430;50.182;11.704;2024-03-29T01:53:32;93157.26;;;7.97;32.76
77366;BME280;66430;50.182;11.704;2024-03-29T01:55:57;93148.41;;;7.49;32.69
77366;BME280;66430;50.182;11.704;2024-03-29T01:58:23;93144.36;;;7.73;32.67
77366;BME280;66430;50.182;11.704;2024-03-29T02:00:52;93141.58;;;7.96;32.87
77366;BME280;66430;50.182;11.704;2024-03-29T02:03:13;93132.19;;;7.73;32.77
77366;BME280;66430;50.182;11.704;2024-03-29T02:05:39;93120.32;;;8.03;32.54
77366;BME280;66430;50.182;11.704;2024-03-29T02:08:06;93122.58;;;7.75;32.58
77366;BME280;66430;50.182;11.704;2024-03-29T02:10:30;93130.70;;;7.99;32.62
77366;BME280;66430;50.182;11.704;2024-03-29T02:12:56;93133.74;;;7.75;32.62
77366;BME280;66430;50.182;11.704;2024-03-29T02:15:22;93139.97;;;7.69;32.61
77366;BME280;66430;50.182;11.704;2024-03-29T02:17:47;93141.64;;;7.90;32.65
77366;BME280;66430;50.182;11.704;2024-03-29T02:20:13;93137.68;;;7.81;32.95
77366;BME280;66430;50.182;11.704;2024-03-29T02:22:44;93129.86;;;7.52;33.14
77366;BME280;66430;50.182;11.704;2024-03-29T02:25:04;93129.08;;;7.53;33.01
77366;BME280;66430;50.182;11.704;2024-03-29T02:27:30;93122.65;;;7.78;33.12
77366;BME280;66430;50.182;11.704;2024-03-29T02:29:56;93121.86;;;7.77;33.10
77366;BME280;66430;50.182;11.704;2024-03-29T02:32:21;93123.05;;;7.81;33.16
77366;BME280;66430;50.182;11.704;2024-03-29T02:34:46;93123.46;;;7.37;33.10
77366;BME280;66430;50.182;11.704;2024-03-29T02:37:12;93129.52;;;7.63;33.12
77366;BME280;66430;50.182;11.704;2024-03-29T02:39:38;93133.53;;;7.80;33.15
77366;BME280;66430;50.182;11.704;2024-03-29T02:42:03;93134.39;;;7.50;33.37
77366;BME280;66430;50.182;11.704;2024-03-29T02:44:28;93129.62;;;7.57;33.46
77366;BME280;66430;50.182;11.704;2024-03-29T02:46:54;93125.35;;;7.58;33.46
77366;BME280;66430;50.182;11.704;2024-03-29T02:49:19;93126.10;;;7.83;33.55
77366;BME280;66430;50.182;11.704;2024-03-29T02:51:45;93117.89;;;7.59;33.70
77366;BME280;66430;50.182;11.704;2024-03-29T02:54:10;93111.19;;;7.59;33.78
77366;BME280;66430;50.182;11.704;2024-03-29T02:56:36;93110.08;;;7.84;33.72
77366;BME280;66430;50.182;11.704;2024-03-29T02:59:02;93106.93;;;7.65;33.61
77366;BME280;66430;50.182;11.704;2024-03-29T03:01:27;93105.20;;;7.47;33.55
77366;BME280;66430;50.182;11.704;2024-03-29T03:03:53;93110.79;;;7.74;33.50
77366;BME280;66430;50.182;11.704;2024-03-29T03:06:18;93109.69;;;7.76;33.50
77366;BME280;66430;50.182;11.704;2024-03-29T03:08:44;93111.82;;;7.75;33.45
77366;BME280;66430;50.182;11.704;2024-03-29T03:11:09;93111.94;;;7.74;33.77
77366;BME280;66430;50.182;11.704;2024-03-29T03:13:35;93104.77;;;7.82;33.53
77366;BME280;66430;50.182;11.704;2024-03-29T03:16:01;93110.35;;;8.01;33.72
77366;BME280;66430;50.182;11.704;2024-03-29T03:18:26;93105.40;;;7.99;33.73
77366;BME280;66430;50.182;11.704;2024-03-29T03:20:52;93115.59;;;7.94;33.75
77366;BME280;66430;50.182;11.704;2024-03-29T03:23:18;93119.96;;;7.72;33.74
77366;BME280;66430;50.182;11.704;2024-03-29T03:25:43;93128.68;;;7.72;33.85
77366;BME280;66430;50.182;11.704;2024-03-29T03:28:09;93129.83;;;7.76;33.74
77366;BME280;66430;50.182;11.704;2024-03-29T03:30:39;93128.29;;;7.80;33.56
77366;BME280;66430;50.182;11.704;2024-03-29T03:33:00;93128.29;;;8.03;33.48
77366;BME280;66430;50.182;11.704;2024-03-29T03:35:25;93115.09;;;7.88;33.71
77366;BME280;66430;50.182;11.704;2024-03-29T03:37:51;93115.04;;;7.71;33.57
77366;BME280;66430;50.182;11.704;2024-03-29T03:40:16;93116.98;;;7.97;33.40
77366;BME280;66430;50.182;11.704;2024-03-29T03:42:42;93115.49;;;7.44;33.53
77366;BME280;66430;50.182;11.704;2024-03-29T03:45:08;93107.92;;;7.65;33.52
77366;BME280;66430;50.182;11.704;2024-03-29T03:47:33;93104.19;;;7.50;33.60
77366;BME280;66430;50.182;11.704;2024-03-29T03:49:59;93100.15;;;7.66;33.36
77366;BME280;66430;50.182;11.704;2024-03-29T03:52:24;93094.52;;;7.81;33.43
77366;BME280;66430;50.182;11.704;2024-03-29T03:54:50;93092.10;;;7.85;33.58
77366;BME280;66430;50.182;11.704;2024-03-29T03:57:16;93093.87;;;7.89;33.49
77366;BME280;66430;50.182;11.704;2024-03-29T03:59:41;93097.97;;;7.89;33.41
77366;BME280;66430;50.182;11.704;2024-03-29T04:02:07;93101.03;;;7.68;33.13
77366;BME280;66430;50.182;11.704;2024-03-29T04:04:32;93097.87;;;7.53;33.30
77366;BME280;66430;50.182;11.704;2024-03-29T04:07:01;93107.07;;;7.97;33.16
77366;BME280;66430;50.182;11.704;2024-03-29T04:09:24;93117.86;;;7.42;33.35
77366;BME280;66430;50.182;11.704;2024-03-29T04:11:49;93104.39;;;7.47;33.19
77366;BME280;66430;50.182;11.704;2024-03-29T04:14:15;93099.31;;;7.73;33.32
77366;BME280;66430;50.182;11.704;2024-03-29T04:16:40;93094.55;;;7.52;33.40
77366;BME280;66430;50.182;11.704;2024-03-29T04:19:06;93088.78;;;7.83;33.37
77366;BME280;66430;50.182;11.704;2024-03-29T04:21:31;93086.53;;;7.69;33.41
77366;BME280;66430;50.182;11.704;2024-03-29T04:23:59;93087.49;;;7.92;33.48
77366;BME280;66430;50.182;11.704;2024-03-29T04:26:22;93091.54;;;7.99;33.44
77366;BME280;66430;50.182;11.704;2024-03-29T04:28:49;93093.76;;;8.01;33.19
77366;BME280;66430;50.182;11.704;2024-03-29T04:31:14;93099.98;;;8.08;33.04
77366;BME280;66430;50.182;11.704;2024-03-29T04:33:40;93105.80;;;7.86;33.16
77366;BME280;66430;50.182;11.704;2024-03-29T04:36:05;93115.04;;;8.02;32.66
77366;BME280;66430;50.182;11.704;2024-03-29T04:38:31;93113.55;;;8.11;32.48
77366;BME280;66430;50.182;11.704;2024-03-29T04:40:57;93121.35;;;8.32;32.62
77366;BME280;66430;50.182;11.704;2024-03-29T04:43:23;93128.32;;;8.32;32.45
77366;BME280;66430;50.182;11.704;2024-03-29T04:45:47;93119.42;;;8.13;32.61
77366;BME280;66430;50.182;11.704;2024-03-29T04:48:13;93124.41;;;8.26;32.27
77366;BME280;66430;50.182;11.704;2024-03-29T04:50:39;93124.99;;;8.34;32.29
77366;BME280;66430;50.182;11.704;2024-03-29T04:53:04;93119.96;;;8.34;32.13
77366;BME280;66430;50.182;11.704;2024-03-29T04:55:29;93121.95;;;8.40;32.36
77366;BME280;66430;50.182;11.704;2024-03-29T04:57:55;93117.59;;;8.21;32.63
77366;BME280;66430;50.182;11.704;2024-03-29T05:00:21;93113.78;;;8.50;32.57
77366;BME280;66430;50.182;11.704;2024-03-29T05:02:46;93111.35;;;8.44;32.58
77366;BME280;66430;50.182;11.704;2024-03-29T05:05:12;93102.83;;;8.45;32.74
77366;BME280;66430;50.182;11.704;2024-03-29T05:07:38;93094.12;;;8.54;32.42
77366;BME280;66430;50.182;11.704;2024-03-29T05:10:03;93099.64;;;8.58;32.44
77366;BME280;66430;50.182;11.704;2024-03-29T05:12:30;93101.02;;;8.57;32.34
77366;BME280;66430;50.182;11.704;2024-03-29T05:14:54;93105.88;;;8.26;32.68
77366;BME280;66430;50.182;11.704;2024-03-29T05:17:19;93112.05;;;8.06;32.46
77366;BME280;66430;50.182;11.704;2024-03-29T05:19:45;93111.98;;;8.63;31.98
77366;BME280;66430;50.182;11.704;2024-03-29T05:22:11;93115.93;;;8.67;32.09
77366;BME280;66430;50.182;11.704;2024-03-29T05:24:36;93123.83;;;8.77;31.79
77366;BME280;66430;50.182;11.704;2024-03-29T05:27:02;93137.14;;;8.66;31.59
77366;BME280;66430;50.182;11.704;2024-03-29T05:29:27;93140.42;;;8.21;32.52
77366;BME280;66430;50.182;11.704;2024-03-29T05:31:53;93138.21;;;8.19;33.16
77366;BME280;66430;50.182;11.704;2024-03-29T05:34:18;93131.37;;;8.71;32.26
77366;BME280;66430;50.182;11.704;2024-03-29T05:36:44;93124.57;;;8.22;32.23
77366;BME280;66430;50.182;11.704;2024-03-29T05:39:09;93127.39;;;8.98;32.19
77366;BME280;66430;50.182;11.704;2024-03-29T05:41:35;93128.80;;;8.53;31.64
77366;BME280;66430;50.182;11.704;2024-03-29T05:44:01;93143.08;;;8.83;31.68
77366;BME280;66430;50.182;11.704;2024-03-29T05:46:26;93144.47;;;8.17;32.78
77366;BME280;66430;50.182;11.704;2024-03-29T05:48:51;93146.48;;;8.54;32.43
77366;BME280;66430;50.182;11.704;2024-03-29T05:51:17;93162.95;;;8.56;32.33
77366;BME280;66430;50.182;11.704;2024-03-29T05:53:43;93160.36;;;9.01;31.91
77366;BME280;66430;50.182;11.704;2024-03-29T05:56:08;93152.47;;;8.94;32.19
77366;BME280;66430;50.182;11.704;2024-03-29T05:58:34;93151.08;;;9.49;32.27
77366;BME280;66430;50.182;11.704;2024-03-29T06:01:00;93147.92;;;9.16;31.59
77366;BME280;66430;50.182;11.704;2024-03-29T06:03:25;93149.15;;;9.32;31.50
77366;BME280;66430;50.182;11.704;2024-03-29T06:05:50;93159.95;;;9.60;31.36
77366;BME280;66430;50.182;11.704;2024-03-29T06:08:16;93155.76;;;9.19;31.86
77366;BME280;66430;50.182;11.704;2024-03-29T06:10:42;93141.09;;;9.43;31.70
77366;BME280;66430;50.182;11.704;2024-03-29T06:13:07;93141.69;;;9.10;31.30
77366;BME280;66430;50.182;11.704;2024-03-29T06:15:33;93154.73;;;8.93;32.04
77366;BME280;66430;50.182;11.704;2024-03-29T06:18:00;93147.94;;;9.23;32.16
77366;BME280;66430;50.182;11.704;2024-03-29T06:20:24;93143.50;;;9.01;32.52
77366;BME280;66430;50.182;11.704;2024-03-29T06:22:49;93140.32;;;9.55;32.24
77366;BME280;66430;50.182;11.704;2024-03-29T06:25:15;93145.00;;;9.58;32.48
77366;BME280;66430;50.182;11.704;2024-03-29T06:27:40;93140.15;;;9.40;31.88
77366;BME280;66430;50.182;11.704;2024-03-29T06:30:06;93149.50;;;9.16;32.91
77366;BME280;66430;50.182;11.704;2024-03-29T06:32:32;93140.84;;;9.10;31.99
77366;BME280;66430;50.182;11.704;2024-03-29T06:34:57;93156.27;;;9.86;31.62
77366;BME280;66430;50.182;11.704;2024-03-29T06:37:23;93150.62;;;9.95;31.17
77366;BME280;66430;50.182;11.704;2024-03-29T06:39:48;93156.57;;;9.91;30.94
77366;BME280;66430;50.182;11.704;2024-03-29T06:42:13;93164.09;;;9.65;31.50
77366;BME280;66430;50.182;11.704;2024-03-29T06:44:39;93185.56;;;9.86;31.06
77366;BME280;66430;50.182;11.704;2024-03-29T06:47:04;93188.05;;;9.97;31.60
77366;BME280;66430;50.182;11.704;2024-03-29T06:49:30;93188.20;;;9.59;31.62
77366;BME280;66430;50.182;11.704;2024-03-29T06:51:56;93188.61;;;9.92;31.84
77366;BME280;66430;50.182;11.704;2024-03-29T06:54:21;93191.16;;;9.53;32.31
77366;BME280;66430;50.182;11.704;2024-03-29T06:56:47;93190.55;;;9.39;33.02
77366;BME280;66430;50.182;11.704;2024-03-29T06:59:12;93186.58;;;9.23;34.09
77366;BME280;66430;50.182;11.704;2024-03-29T07:01:43;93190.12;;;9.81;33.17
77366;BME280;66430;50.182;11.704;2024-03-29T07:04:08;93176.11;;;9.62;33.55
77366;BME280;66430;50.182;11.704;2024-03-29T07:06:29;93175.83;;;9.46;33.58
77366;BME280;66430;50.182;11.704;2024-03-29T07:08:55;93168.83;;;9.88;33.59
77366;BME280;66430;50.182;11.704;2024-03-29T07:11:20;93165.15;;;10.21;32.98
77366;BME280;66430;50.182;11.704;2024-03-29T07:13:45;93162.78;;;10.22;32.49
77366;BME280;66430;50.182;11.704;2024-03-29T07:16:12;93159.10;;;10.12;32.77
77366;BME280;66430;50.182;11.704;2024-03-29T07:18:36;93152.04;;;10.27;32.19
77366;BME280;66430;50.182;11.704;2024-03-29T07:21:02;93143.08;;;10.44;32.91
77366;BME280;66430;50.182;11.704;2024-03-29T07:23:27;93160.45;;;10.02;32.92
77366;BME280;66430;50.182;11.704;2024-03-29T07:25:59;93156.67;;;10.15;32.60
77366;BME280;66430;50.182;11.704;2024-03-29T07:28:23;93154.36;;;10.62;32.31
77366;BME280;66430;50.182;11.704;2024-03-29T07:30:43;93152.84;;;10.67;32.42
77366;BME280;66430;50.182;11.704;2024-03-29T07:33:09;93151.86;;;10.25;32.09
77366;BME280;66430;50.182;11.704;2024-03-29T07:35:35;93152.86;;;10.25;32.09
77366;BME280;66430;50.182;11.704;2024-03-29T07:38:00;93153.29;;;10.82;31.16
77366;BME280;66430;50.182;11.704;2024-03-29T07:40:26;93171.61;;;10.51;31.65
77366;BME280;66430;50.182;11.704;2024-03-29T07:42:51;93166.61;;;11.14;31.55
77366;BME280;66430;50.182;11.704;2024-03-29T07:45:16;93166.82;;;10.90;32.63
77366;BME280;66430;50.182;11.704;2024-03-29T07:47:42;93161.48;;;10.27;32.61
77366;BME280;66430;50.182;11.704;2024-03-29T07:50:08;93166.85;;;11.20;32.60
77366;BME280;66430;50.182;11.704;2024-03-29T07:52:34;93162.78;;;10.69;32.13
77366;BME280;66430;50.182;11.704;2024-03-29T07:54:59;93168.54;;;11.21;32.05
77366;BME280;66430;50.182;11.704;2024-03-29T07:57:24;93167.69;;;11.63;30.86
77366;BME280;66430;50.182;11.704;2024-03-29T07:59:51;93172.46;;;11.02;32.25
77366;BME280;66430;50.182;11.704;2024-03-29T08:02:15;93165.10;;;11.35;31.51
77366;BME280;66430;50.182;11.704;2024-03-29T08:04:40;93152.34;;;11.53;30.89
77366;BME280;66430;50.182;11.704;2024-03-29T08:07:06;93156.93;;;11.78;31.11
77366;BME280;66430;50.182;11.704;2024-03-29T08:09:31;93151.83;;;12.24;31.02
77366;BME280;66430;50.182;11.704;2024-03-29T08:11:57;93140.02;;;12.02;30.84
77366;BME280;66430;50.182;11.704;2024-03-29T08:14:22;93132.19;;;12.36;30.62
77366;BME280;66430;50.182;11.704;2024-03-29T08:16:48;93128.26;;;12.28;29.78
77366;BME280;66430;50.182;11.704;2024-03-29T08:19:13;93120.62;;;12.73;29.79
77366;BME280;66430;50.182;11.704;2024-03-29T08:21:39;93133.43;;;12.76;29.17
77366;BME280;66430;50.182;11.704;2024-03-29T08:24:05;93127.99;;;12.48;30.96
77366;BME280;66430;50.182;11.704;2024-03-29T08:26:30;93138.44;;;12.48;29.70
77366;BME280;66430;50.182;11.704;2024-03-29T08:28:55;93124.84;;;12.70;30.91
77366;BME280;66430;50.182;11.704;2024-03-29T08:31:21;93123.61;;;13.37;29.00
77366;BME280;66430;50.182;11.704;2024-03-29T08:33:46;93119.83;;;13.25;29.42
77366;BME280;66430;50.182;11.704;2024-03-29T08:36:12;93118.38;;;13.72;28.91
77366;BME280;66430;50.182;11.704;2024-03-29T08:38:38;93121.64;;;13.61;28.62
77366;BME280;66430;50.182;11.704;2024-03-29T08:41:02;93122.67;;;13.87;28.37
77366;BME280;66430;50.182;11.704;2024-03-29T08:43:29;93130.16;;;13.28;28.13
77366;BME280;66430;50.182;11.704;2024-03-29T08:45:53;93122.99;;;13.27;27.54
77366;BME280;66430;50.182;11.704;2024-03-29T08:48:19;93124.80;;;13.34;27.85
77366;BME280;66430;50.182;11.704;2024-03-29T08:50:44;93116.47;;;13.73;26.72
77366;BME280;66430;50.182;11.704;2024-03-29T08:53:09;93121.68;;;13.49;27.93
77366;BME280;66430;50.182;11.704;2024-03-29T08:55:35;93116.28;;;13.95;26.20
77366;BME280;66430;50.182;11.704;2024-03-29T08:58:01;93115.41;;;14.21;25.67
77366;BME280;66430;50.182;11.704;2024-03-29T09:00:25;93115.24;;;14.01;26.08
77366;BME280;66430;50.182;11.704;2024-03-29T09:02:51;93121.88;;;14.21;25.32
77366;BME280;66430;50.182;11.704;2024-03-29T09:05:16;93110.50;;;13.96;25.38
77366;BME280;66430;50.182;11.704;2024-03-29T09:07:41;93107.60;;;14.52;25.07
77366;BME280;66430;50.182;11.704;2024-03-29T09:10:08;93109.78;;;14.11;25.41
77366;BME280;66430;50.182;11.704;2024-03-29T09:12:32;93110.01;;;14.33;23.80
77366;BME280;66430;50.182;11.704;2024-03-29T09:14:58;93121.65;;;14.17;24.40
77366;BME280;66430;50.182;11.704;2024-03-29T09:17:23;93123.13;;;14.55;23.96
77366;BME280;66430;50.182;11.704;2024-03-29T09:19:50;93118.44;;;14.63;24.85
77366;BME280;66430;50.182;11.704;2024-03-29T09:22:23;93120.54;;;14.37;23.75
77366;BME280;66430;50.182;11.704;2024-03-29T09:24:40;93118.42;;;14.47;23.61
77366;BME280;66430;50.182;11.704;2024-03-29T09:27:05;93114.72;;;14.47;25.56
77366;BME280;66430;50.182;11.704;2024-03-29T09:29:30;93120.27;;;14.62;24.31
77366;BME280;66430;50.182;11.704;2024-03-29T09:31:56;93116.54;;;14.24;25.17
77366;BME280;66430;50.182;11.704;2024-03-29T09:34:21;93112.95;;;14.50;23.52
77366;BME280;66430;50.182;11.704;2024-03-29T09:36:46;93107.79;;;14.92;23.45
77366;BME280;66430;50.182;11.704;2024-03-29T09:39:12;93107.37;;;14.54;24.04
77366;BME280;66430;50.182;11.704;2024-03-29T09:41:38;93111.39;;;14.63;23.70
77366;BME280;66430;50.182;11.704;2024-03-29T09:44:03;93116.57;;;14.38;24.71
77366;BME280;66430;50.182;11.704;2024-03-29T09:46:29;93121.82;;;14.28;24.38
77366;BME280;66430;50.182;11.704;2024-03-29T09:48:55;93124.18;;;14.64;24.08
77366;BME280;66430;50.182;11.704;2024-03-29T09:51:24;93125.13;;;14.26;24.22
77366;BME280;66430;50.182;11.704;2024-03-29T09:53:46;93129.31;;;14.08;24.47
77366;BME280;66430;50.182;11.704;2024-03-29T09:56:10;93139.07;;;14.07;24.00
77366;BME280;66430;50.182;11.704;2024-03-29T09:58:37;93140.00;;;14.24;25.19
77366;BME280;66430;50.182;11.704;2024-03-29T10:01:01;93143.35;;;14.34;25.22
77366;BME280;66430;50.182;11.704;2024-03-29T10:03:39;93152.30;;;13.48;26.09
77366;BME280;66430;50.182;11.704;2024-03-29T10:05:51;93161.15;;;14.05;25.91
77366;BME280;66430;50.182;11.704;2024-03-29T10:08:17;93181.19;;;14.12;26.30
77366;BME280;66430;50.182;11.704;2024-03-29T10:10:42;93181.68;;;13.13;26.86
77366;BME280;66430;50.182;11.704;2024-03-29T10:13:08;93189.45;;;13.21;27.30
77366;BME280;66430;50.182;11.704;2024-03-29T10:15:33;93193.27;;;13.38;27.57
77366;BME280;66430;50.182;11.704;2024-03-29T10:17:59;93196.60;;;12.97;28.04
77366;BME280;66430;50.182;11.704;2024-03-29T10:20:24;93212.29;;;12.77;29.55
77366;BME280;66430;50.182;11.704;2024-03-29T10:22:49;93221.30;;;12.87;29.83
77366;BME280;66430;50.182;11.704;2024-03-29T10:25:15;93219.96;;;13.31;29.81
77366;BME280;66430;50.182;11.704;2024-03-29T10:27:41;93226.57;;;12.72;31.81
77366;BME280;66430;50.182;11.704;2024-03-29T10:30:07;93236.09;;;12.72;32.00
77366;BME280;66430;50.182;11.704;2024-03-29T10:32:31;93239.25;;;12.94;32.60
77366;BME280;66430;50.182;11.704;2024-03-29T10:34:59;93246.02;;;12.69;32.52
77366;BME280;66430;50.182;11.704;2024-03-29T10:37:23;93249.42;;;12.41;34.22
77366;BME280;66430;50.182;11.704;2024-03-29T10:39:47;93256.50;;;11.98;34.49
77366;BME280;66430;50.182;11.704;2024-03-29T10:42:13;93256.42;;;12.05;35.00
77366;BME280;66430;50.182;11.704;2024-03-29T10:44:40;93260.98;;;12.14;35.26
77366;BME280;66430;50.182;11.704;2024-03-29T10:47:09;93260.70;;;11.82;35.97
77366;BME280;66430;50.182;11.704;2024-03-29T10:49:33;93264.35;;;11.31;35.88
77366;BME280;66430;50.182;11.704;2024-03-29T10:51:55;93264.51;;;12.52;35.55
77366;BME280;66430;50.182;11.704;2024-03-29T10:54:23;93265.99;;;12.42;36.17
77366;BME280;66430;50.182;11.704;2024-03-29T10:56:48;93265.30;;;12.09;37.08
77366;BME280;66430;50.182;11.704;2024-03-29T10:59:20;93259.48;;;12.45;37.17
77366;BME280;66430;50.182;11.704;2024-03-29T11:01:38;93260.98;;;12.19;37.32
77366;BME280;66430;50.182;11.704;2024-03-29T11:04:09;93259.98;;;12.67;36.66
77366;BME280;66430;50.182;11.704;2024-03-29T11:06:29;93259.59;;;12.99;36.72
77366;BME280;66430;50.182;11.704;2024-03-29T11:08:56;93256.64;;;12.46;36.97
77366;BME280;66430;50.182;11.704;2024-03-29T11:11:19;93254.82;;;12.70;37.12
77366;BME280;66430;50.182;11.704;2024-03-29T11:13:49;93254.96;;;12.70;38.29
77366;BME280;66430;50.182;11.704;2024-03-29T11:16:10;93245.68;;;12.79;38.96
77366;BME280;66430;50.182;11.704;2024-03-29T11:18:36;93222.84;;;12.87;38.08
77366;BME280;66430;50.182;11.704;2024-03-29T11:21:01;93222.84;;;12.85;37.00
77366;BME280;66430;50.182;11.704;2024-03-29T11:23:28;93227.63;;;13.22;36.95
77366;BME280;66430;50.182;11.704;2024-03-29T11:25:53;93227.88;;;12.50;37.73
77366;BME280;66430;50.182;11.704;2024-03-29T11:28:23;93237.58;;;12.98;38.11
77366;BME280;66430;50.182;11.704;2024-03-29T11:30:45;93235.37;;;12.97;38.49
77366;BME280;66430;50.182;11.704;2024-03-29T11:33:08;93230.46;;;13.45;37.79
77366;BME280;66430;50.182;11.704;2024-03-29T11:35:40;93223.57;;;13.44;38.05
77366;BME280;66430;50.182;11.704;2024-03-29T11:37:59;93218.89;;;13.05;37.89
77366;BME280;66430;50.182;11.704;2024-03-29T11:40:30;93221.16;;;13.69;37.40
77366;BME280;66430;50.182;11.704;2024-03-29T11:42:52;93212.44;;;13.75;37.61
77366;BME280;66430;50.182;11.704;2024-03-29T11:45:15;93188.76;;;14.35;36.33
77366;BME280;66430;50.182;11.704;2024-03-29T11:47:41;93183.16;;;13.63;36.56
77366;BME280;66430;50.182;11.704;2024-03-29T11:50:07;93159.00;;;14.19;37.11
77366;BME280;66430;50.182;11.704;2024-03-29T11:52:32;93128.09;;;14.64;36.39
77366;BME280;66430;50.182;11.704;2024-03-29T11:54:57;93134.09;;;14.65;35.95
77366;BME280;66430;50.182;11.704;2024-03-29T11:57:22;93153.28;;;14.01;36.99
77366;BME280;66430;50.182;11.704;2024-03-29T11:59:48;93160.50;;;14.48;36.40
77366;BME280;66430;50.182;11.704;2024-03-29T12:02:13;93171.89;;;14.38;36.70
77366;BME280;66430;50.182;11.704;2024-03-29T12:04:40;93181.69;;;15.04;36.14
77366;BME280;66430;50.182;11.704;2024-03-29T12:07:04;93178.14;;;14.91;36.52
77366;BME280;66430;50.182;11.704;2024-03-29T12:09:30;93169.36;;;14.05;37.85
77366;BME280;66430;50.182;11.704;2024-03-29T12:11:55;93163.39;;;14.52;36.41
77366;BME280;66430;50.182;11.704;2024-03-29T12:14:21;93152.34;;;15.09;37.60
77366;BME280;66430;50.182;11.704;2024-03-29T12:16:46;93163.29;;;14.91;36.24
77366;BME280;66430;50.182;11.704;2024-03-29T12:19:22;93177.84;;;14.92;37.12
77366;BME280;66430;50.182;11.704;2024-03-29T12:21:38;93171.42;;;15.08;35.58
77366;BME280;66430;50.182;11.704;2024-03-29T12:24:02;93161.18;;;15.27;36.12
77366;BME280;66430;50.182;11.704;2024-03-29T12:26:28;93161.05;;;15.36;35.57
77366;BME280;66430;50.182;11.704;2024-03-29T12:28:53;93165.16;;;15.35;36.40
77366;BME280;66430;50.182;11.704;2024-03-29T12:31:18;93177.94;;;16.06;36.02
77366;BME280;66430;50.182;11.704;2024-03-29T12:33:51;93177.02;;;15.70;35.72
77366;BME280;66430;50.182;11.704;2024-03-29T12:36:12;93172.16;;;15.98;35.05
77366;BME280;66430;50.182;11.704;2024-03-29T12:38:35;93159.20;;;15.00;36.57
77366;BME280;66430;50.182;11.704;2024-03-29T12:41:01;93159.00;;;15.83;35.49
77366;BME280;66430;50.182;11.704;2024-03-29T12:43:27;93166.00;;;15.79;35.47
77366;BME280;66430;50.182;11.704;2024-03-29T12:45:51;93169.93;;;15.96;34.65